Time;durP1;ratioP1;P1;durP2;ratioP2;P2;SDS_P1;SDS_P2;PMS_P1;PMS_P2;Temp;Humidity;BMP_temperature;BMP_pressure;BME280_temperature;BME280_humidity;BME280_pressure;Samples;Min_cycle;Max_cycle;Signal;HPM_P1;HPM_P2
2022/04/22 00:01:49;;;;;;;14.02;6.45;;;;;;;;;;10301598;28;20460;-70
2022/04/22 00:06:52;;;;;;;15.68;6.82;;;;;;;;;;10297417;28;20487;-70
2022/04/22 00:11:56;;;;;;;11.68;5.78;;;;;;;;;;10304862;28;20045;-70
2022/04/22 00:17:00;;;;;;;11.85;4.90;;;;;;;;;;10300340;28;20128;-69
2022/04/22 00:22:04;;;;;;;14.23;5.93;;;;;;;;;;10301541;28;20057;-70
2022/04/22 00:27:08;;;;;;;14.52;5.68;;;;;;;;;;10296778;28;20134;-70
2022/04/22 00:32:11;;;;;;;11.20;6.28;;;;;;;;;;10293726;28;20050;-70
2022/04/22 00:37:14;;;;;;;13.75;6.35;;;;;;;;;;10298668;28;20483;-70
2022/04/22 00:42:19;;;;;;;16.02;5.47;;;;;;;;;;10300713;28;20054;-69
2022/04/22 00:47:21;;;;;;;;;;;;;;;;;;10301075;28;20035;-70
2022/04/22 00:52:25;;;;;;;13.73;5.93;;;;;;;;;;10301594;28;19926;-70
2022/04/22 00:57:29;;;;;;;12.17;5.77;;;;;;;;;;10301075;28;20129;-69
2022/04/22 01:02:37;;;;;;;14.75;6.45;;;;;;;;;;10300112;28;20034;-69
2022/04/22 01:13:01;;;;;;;14.52;5.88;;;;;;;;;;10303632;28;20046;-70
2022/04/22 01:18:05;;;;;;;13.30;5.47;;;;;;;;;;10298891;28;20065;-70
2022/04/22 01:23:09;;;;;;;11.67;5.83;;;;;;;;;;10299131;28;20077;-70
2022/04/22 01:28:12;;;;;;;11.30;5.88;;;;;;;;;;10298277;28;20507;-70
2022/04/22 01:33:15;;;;;;;11.70;5.90;;;;;;;;;;10316440;28;20045;-70
2022/04/22 01:38:20;;;;;;;12.27;5.68;;;;;;;;;;10321801;28;20389;-70
2022/04/22 01:43:23;;;;;;;12.13;5.72;;;;;;;;;;10308920;28;20050;-70
2022/04/22 01:48:26;;;;;;;12.32;5.93;;;;;;;;;;10305648;28;20291;-69
2022/04/22 01:53:30;;;;;;;12.82;5.60;;;;;;;;;;10321206;28;20097;-69
2022/04/22 01:58:38;;;;;;;12.27;5.40;;;;;;;;;;10303772;28;20093;-69
2022/04/22 02:03:41;;;;;;;11.10;4.82;;;;;;;;;;10306075;28;20039;-71
2022/04/22 02:08:46;;;;;;;18.10;6.35;;;;;;;;;;10305429;28;20490;-69
2022/04/22 02:13:49;;;;;;;13.70;5.38;;;;;;;;;;10306908;28;20047;-70
2022/04/22 02:18:52;;;;;;;13.23;5.85;;;;;;;;;;10305422;28;20057;-70
2022/04/22 02:23:56;;;;;;;12.82;5.35;;;;;;;;;;10306780;28;20038;-70
2022/04/22 02:28:59;;;;;;;11.63;5.90;;;;;;;;;;10302569;28;20125;-69
2022/04/22 02:34:02;;;;;;;12.35;5.82;;;;;;;;;;10303864;28;20038;-70
2022/04/22 02:39:06;;;;;;;13.20;6.25;;;;;;;;;;10318807;28;20034;-70
2022/04/22 02:49:30;;;;;;;12.57;5.50;;;;;;;;;;10302065;28;20447;-71
2022/04/22 02:54:34;;;;;;;14.48;6.90;;;;;;;;;;10321279;28;20081;-70
2022/04/22 02:59:39;;;;;;;11.98;5.32;;;;;;;;;;10300271;28;20444;-70
2022/04/22 03:04:42;;;;;;;11.00;5.68;;;;;;;;;;10304719;28;20830;-70
2022/04/22 03:09:47;;;;;;;13.27;6.43;;;;;;;;;;10318670;28;20042;-69
2022/04/22 03:14:51;;;;;;;14.00;6.45;;;;;;;;;;10305274;28;20043;-71
2022/04/22 03:19:53;;;;;;;11.13;5.60;;;;;;;;;;10318503;28;20483;-71
2022/04/22 03:24:58;;;;;;;15.20;6.57;;;;;;;;;;10299443;28;20511;-71
2022/04/22 03:30:02;;;;;;;12.57;5.80;;;;;;;;;;10300004;28;20057;-70
2022/04/22 03:35:06;;;;;;;20.40;7.65;;;;;;;;;;10302456;28;20574;-70
2022/04/22 03:40:11;;;;;;;21.03;8.10;;;;;;;;;;10301465;28;20184;-70
2022/04/22 03:45:14;;;;;;;18.75;7.18;;;;;;;;;;10304912;28;20038;-69
2022/04/22 03:50:17;;;;;;;16.33;7.80;;;;;;;;;;10297880;28;20092;-70
2022/04/22 03:55:21;;;;;;;17.27;8.32;;;;;;;;;;10316809;28;20066;-70
2022/04/22 04:00:24;;;;;;;19.52;9.65;;;;;;;;;;10301097;28;20038;-70
2022/04/22 04:05:27;;;;;;;17.95;8.43;;;;;;;;;;10301439;28;20038;-70
2022/04/22 04:16:01;;;;;;;17.67;8.32;;;;;;;;;;10303891;28;20570;-70
2022/04/22 04:26:28;;;;;;;20.38;9.40;;;;;;;;;;10298537;28;20058;-70
2022/04/22 04:31:33;;;;;;;19.63;8.73;;;;;;;;;;10298747;28;20491;-70
2022/04/22 04:36:36;;;;;;;18.67;8.32;;;;;;;;;;10317090;28;20049;-70
2022/04/22 04:41:40;;;;;;;21.67;8.55;;;;;;;;;;10296509;28;20065;-70
2022/04/22 04:46:43;;;;;;;16.67;7.22;;;;;;;;;;10300683;28;20061;-70
2022/04/22 04:51:46;;;;;;;17.42;6.82;;;;;;;;;;10313547;28;20089;-70
2022/04/22 04:56:53;;;;;;;17.15;7.25;;;;;;;;;;10299721;28;20043;-70
2022/04/22 05:01:56;;;;;;;17.25;8.10;;;;;;;;;;10311546;28;20614;-70
2022/04/22 05:06:59;;;;;;;16.98;7.20;;;;;;;;;;10301103;28;20037;-70
2022/04/22 05:12:04;;;;;;;16.60;7.55;;;;;;;;;;10325679;28;20627;-70
2022/04/22 05:17:07;;;;;;;16.05;7.38;;;;;;;;;;10307171;28;20448;-70
2022/04/22 05:22:10;;;;;;;19.92;8.90;;;;;;;;;;10304700;28;20112;-70
2022/04/22 05:27:15;;;;;;;16.85;7.68;;;;;;;;;;10308234;28;20043;-70
2022/04/22 05:37:46;;;;;;;15.82;6.75;;;;;;;;;;10305225;28;19980;-70
2022/04/22 05:42:51;;;;;;;18.15;8.20;;;;;;;;;;10305127;28;20449;-70
2022/04/22 05:47:56;;;;;;;19.10;8.45;;;;;;;;;;10308006;28;20391;-70
2022/04/22 05:53:00;;;;;;;23.60;9.93;;;;;;;;;;10299482;28;20039;-70
2022/04/22 05:58:04;;;;;;;20.63;9.50;;;;;;;;;;10306376;28;20065;-70
2022/04/22 06:03:08;;;;;;;19.40;8.85;;;;;;;;;;10303464;28;20462;-70
2022/04/22 06:13:33;;;;;;;17.63;8.65;;;;;;;;;;10309284;28;20053;-70
2022/04/22 06:18:36;;;;;;;;;;;;;;;;;;10302836;28;20106;-69
2022/04/22 06:23:38;;;;;;;17.10;7.97;;;;;;;;;;10310592;28;19930;-70
2022/04/22 06:28:43;;;;;;;15.20;7.80;;;;;;;;;;10303296;28;20049;-70
2022/04/22 06:33:45;;;;;;;;;;;;;;;;;;10302358;28;20077;-70
2022/04/22 06:38:48;;;;;;;15.40;7.68;;;;;;;;;;10319328;28;20303;-70
2022/04/22 06:49:13;;;;;;;15.35;7.05;;;;;;;;;;10303270;28;20137;-70
2022/04/22 06:54:16;;;;;;;17.80;7.77;;;;;;;;;;10318211;28;20038;-70
2022/04/22 06:59:23;;;;;;;19.77;8.50;;;;;;;;;;10298543;28;20062;-71
2022/04/22 07:04:26;;;;;;;15.95;8.25;;;;;;;;;;10304463;28;20687;-70
2022/04/22 07:09:29;;;;;;;16.30;7.22;;;;;;;;;;10298799;28;20041;-71
2022/04/22 07:14:33;;;;;;;18.27;7.63;;;;;;;;;;10303943;28;20042;-72
2022/04/22 07:19:37;;;;;;;14.95;7.93;;;;;;;;;;10300277;28;20101;-70
2022/04/22 07:24:40;;;;;;;16.17;7.77;;;;;;;;;;10316896;28;20138;-70
2022/04/22 07:29:45;;;;;;;19.93;9.43;;;;;;;;;;10301790;28;20030;-71
2022/04/22 07:34:48;;;;;;;16.65;7.95;;;;;;;;;;10301328;28;20046;-70
2022/04/22 07:39:52;;;;;;;16.95;9.15;;;;;;;;;;10303958;28;20039;-70
2022/04/22 07:50:19;;;;;;;20.85;8.55;;;;;;;;;;10297563;28;20480;-71
2022/04/22 07:55:22;;;;;;;13.52;8.35;;;;;;;;;;10302875;28;20042;-71
2022/04/22 08:00:28;;;;;;;15.57;8.23;;;;;;;;;;10302920;28;20097;-70
2022/04/22 08:05:31;;;;;;;11.38;7.90;;;;;;;;;;10303042;28;20058;-69
2022/04/22 08:10:34;;;;;;;13.05;8.88;;;;;;;;;;10299498;28;20038;-69
2022/04/22 08:15:38;;;;;;;13.60;7.65;;;;;;;;;;10300757;28;20045;-70
2022/04/22 08:20:42;;;;;;;16.65;9.07;;;;;;;;;;10304286;28;20515;-70
2022/04/22 08:25:44;;;;;;;10.43;7.60;;;;;;;;;;10302668;28;20077;-70
2022/04/22 08:30:49;;;;;;;14.10;8.35;;;;;;;;;;10300465;28;20043;-70
2022/04/22 08:35:53;;;;;;;14.10;7.68;;;;;;;;;;10300437;28;20065;-70
2022/04/22 08:40:56;;;;;;;;;;;;;;;;;;10296893;28;20103;-70
2022/04/22 08:46:01;;;;;;;12.93;7.95;;;;;;;;;;10299844;28;19930;-69
2022/04/22 08:51:07;;;;;;;13.43;7.07;;;;;;;;;;10313973;28;20035;-71
2022/04/22 08:56:11;;;;;;;11.27;7.43;;;;;;;;;;10313167;28;20062;-71
2022/04/22 09:01:17;;;;;;;12.93;7.65;;;;;;;;;;10314574;28;20054;-70
2022/04/22 09:06:21;;;;;;;11.63;7.80;;;;;;;;;;10299590;28;20039;-68
2022/04/22 09:11:24;;;;;;;11.35;7.85;;;;;;;;;;10298468;28;20034;-70
2022/04/22 09:16:28;;;;;;;14.73;7.80;;;;;;;;;;10298964;28;20073;-71
2022/04/22 09:21:31;;;;;;;13.93;7.53;;;;;;;;;;10315446;28;20487;-71
2022/04/22 09:26:34;;;;;;;12.68;7.32;;;;;;;;;;10299716;28;20039;-70
2022/04/22 09:31:49;;;;;;;10.85;7.43;;;;;;;;;;10294336;28;20042;-72
2022/04/22 09:47:36;;;;;;;13.45;8.45;;;;;;;;;;10298696;28;20066;-70
2022/04/22 09:52:43;;;;;;;10.93;8.55;;;;;;;;;;10297698;28;20354;-70
2022/04/22 09:57:53;;;;;;;13.40;8.30;;;;;;;;;;10304308;28;20031;-68
2022/04/22 10:02:58;;;;;;;10.43;8.02;;;;;;;;;;10305630;28;20460;-70
2022/04/22 10:08:03;;;;;;;11.13;7.63;;;;;;;;;;10302745;28;20061;-70
2022/04/22 10:13:08;;;;;;;11.82;8.32;;;;;;;;;;10307281;28;20151;-70
2022/04/22 10:18:14;;;;;;;11.77;8.25;;;;;;;;;;10303800;28;20045;-71
2022/04/22 10:23:18;;;;;;;9.80;7.78;;;;;;;;;;10319054;28;20114;-72
2022/04/22 10:28:23;;;;;;;13.90;7.60;;;;;;;;;;10314040;28;20070;-70
2022/04/22 10:33:28;;;;;;;11.35;8.07;;;;;;;;;;10300919;28;20043;-72
2022/04/22 10:38:34;;;;;;;12.02;8.13;;;;;;;;;;10305506;28;20046;-70
2022/04/22 10:43:37;;;;;;;12.30;8.23;;;;;;;;;;10304931;28;20263;-71
2022/04/22 10:48:42;;;;;;;13.20;7.95;;;;;;;;;;10316375;28;20043;-70
2022/04/22 10:53:49;;;;;;;11.32;7.97;;;;;;;;;;10319791;28;20319;-70
2022/04/22 10:59:24;;;;;;;10.07;8.25;;;;;;;;;;10314212;28;20261;-71
2022/04/22 11:04:31;;;;;;;11.93;8.63;;;;;;;;;;10302543;28;20046;-71
2022/04/22 11:09:34;;;;;;;11.98;8.73;;;;;;;;;;10301452;28;20411;-70
2022/04/22 11:14:44;;;;;;;13.48;8.68;;;;;;;;;;10321695;28;20572;-71
2022/04/22 11:19:59;;;;;;;12.80;8.75;;;;;;;;;;10312505;28;20073;-70
2022/04/22 11:25:03;;;;;;;18.33;8.45;;;;;;;;;;10300820;28;20138;-70
2022/04/22 11:30:09;;;;;;;10.80;8.25;;;;;;;;;;10314655;28;20049;-71
2022/04/22 11:35:17;;;;;;;13.07;8.93;;;;;;;;;;10303449;28;20112;-71
2022/04/22 11:40:20;;;;;;;13.32;9.27;;;;;;;;;;10299072;28;20043;-71
2022/04/22 11:45:24;;;;;;;12.05;9.80;;;;;;;;;;10303890;28;20326;-71
2022/04/22 11:50:28;;;;;;;12.10;8.27;;;;;;;;;;10301706;28;20456;-71
2022/04/22 11:55:35;;;;;;;10.25;8.88;;;;;;;;;;10300524;28;20484;-71
2022/04/22 12:06:01;;;;;;;12.38;9.38;;;;;;;;;;10302680;28;20507;-72
2022/04/22 12:11:04;;;;;;;13.68;8.93;;;;;;;;;;10298000;28;20041;-71
2022/04/22 12:16:07;;;;;;;12.15;8.45;;;;;;;;;;10301649;28;20459;-72
2022/04/22 12:21:12;;;;;;;11.48;8.23;;;;;;;;;;10300481;28;20125;-71
2022/04/22 12:26:16;;;;;;;11.73;7.95;;;;;;;;;;10301294;28;20042;-72
2022/04/22 12:31:21;;;;;;;11.32;7.95;;;;;;;;;;10296492;28;20034;-70
2022/04/22 12:36:27;;;;;;;10.88;8.45;;;;;;;;;;10297295;28;20125;-70
2022/04/22 12:41:33;;;;;;;13.07;10.13;;;;;;;;;;10298636;28;20049;-71
2022/04/22 12:52:10;;;;;;;12.40;9.00;;;;;;;;;;10299666;28;20097;-71
2022/04/22 12:57:18;;;;;;;13.50;9.80;;;;;;;;;;10296645;28;20491;-71
2022/04/22 13:02:26;;;;;;;10.93;8.68;;;;;;;;;;10296518;28;20050;-71
2022/04/22 13:07:41;;;;;;;14.70;9.38;;;;;;;;;;10299912;28;20038;-71
2022/04/22 13:12:45;;;;;;;17.35;9.88;;;;;;;;;;10296760;28;20467;-71
2022/04/22 13:17:49;;;;;;;13.63;9.23;;;;;;;;;;10296881;28;20543;-71
2022/04/22 13:22:56;;;;;;;14.23;9.32;;;;;;;;;;10300339;28;20023;-71
2022/04/22 13:28:00;;;;;;;15.20;9.25;;;;;;;;;;10299716;28;20127;-71
2022/04/22 13:33:03;;;;;;;13.90;9.15;;;;;;;;;;10303120;28;20092;-72
2022/04/22 13:38:08;;;;;;;12.48;8.43;;;;;;;;;;10303616;28;20038;-72
2022/04/22 13:43:11;;;;;;;13.73;8.35;;;;;;;;;;10306568;28;20061;-69
2022/04/22 13:53:37;;;;;;;11.40;8.05;;;;;;;;;;10309085;28;20136;-70
2022/04/22 13:58:40;;;;;;;11.50;7.55;;;;;;;;;;10338440;22;20045;-72
2022/04/22 14:03:43;;;;;;;11.88;8.00;;;;;;;;;;10385223;28;20040;-73
2022/04/22 14:08:48;;;;;;;13.15;8.13;;;;;;;;;;10383685;28;20041;-73
2022/04/22 14:13:52;;;;;;;11.38;7.45;;;;;;;;;;10388958;28;20493;-72
2022/04/22 14:18:56;;;;;;;11.77;7.68;;;;;;;;;;10394875;28;20042;-73
2022/04/22 14:24:00;;;;;;;14.48;8.13;;;;;;;;;;10376226;28;20053;-74
2022/04/22 14:29:03;;;;;;;13.13;7.75;;;;;;;;;;10378733;28;20099;-72
2022/04/22 14:34:07;;;;;;;8.40;4.60;;;;;;;;;;10383786;28;20045;-73
2022/04/22 14:39:11;;;;;;;12.82;7.75;;;;;;;;;;10380047;28;20057;-74
2022/04/22 14:44:15;;;;;;;13.32;7.15;;;;;;;;;;10387335;28;20037;-74
2022/04/22 14:49:19;;;;;;;12.43;6.82;;;;;;;;;;10380261;28;20063;-73
2022/04/22 14:54:24;;;;;;;13.07;7.78;;;;;;;;;;10386946;28;20101;-72
2022/04/22 14:59:26;;;;;;;13.20;8.57;;;;;;;;;;10377445;28;20038;-73
2022/04/22 15:04:29;;;;;;;12.57;7.35;;;;;;;;;;10385980;28;20551;-73
2022/04/22 15:09:34;;;;;;;22.13;8.05;;;;;;;;;;10381387;28;20510;-73
2022/04/22 15:14:37;;;;;;;12.30;7.25;;;;;;;;;;10386542;28;20099;-73
2022/04/22 15:25:01;;;;;;;17.13;8.20;;;;;;;;;;10365909;28;19992;-73
2022/04/22 15:30:05;;;;;;;13.52;7.70;;;;;;;;;;10385468;28;20110;-73
2022/04/22 15:35:08;;;;;;;12.63;6.22;;;;;;;;;;10367388;28;20464;-73
2022/04/22 15:40:13;;;;;;;14.38;6.57;;;;;;;;;;10383554;28;20034;-73
2022/04/22 15:45:16;;;;;;;14.65;7.22;;;;;;;;;;10365604;28;20050;-73
2022/04/22 15:50:19;;;;;;;;;;;;;;;;;;10388187;28;20564;-73
2022/04/22 15:55:25;;;;;;;12.80;6.80;;;;;;;;;;10384392;28;19941;-73
2022/04/22 16:00:27;;;;;;;11.18;6.70;;;;;;;;;;10360744;28;20469;-73
2022/04/22 16:05:31;;;;;;;11.52;5.85;;;;;;;;;;10366484;28;20049;-73
2022/04/22 16:10:35;;;;;;;13.63;6.68;;;;;;;;;;10381930;28;20036;-73
2022/04/22 16:15:39;;;;;;;12.05;6.78;;;;;;;;;;10365775;28;20477;-74
2022/04/22 16:20:42;;;;;;;11.55;5.95;;;;;;;;;;10365516;28;20058;-72
2022/04/22 16:25:46;;;;;;;10.15;5.60;;;;;;;;;;10377866;28;20501;-71
2022/04/22 16:30:51;;;;;;;11.10;6.20;;;;;;;;;;10380042;28;20104;-73
2022/04/22 16:35:54;;;;;;;9.82;5.50;;;;;;;;;;10376796;28;20421;-73
2022/04/22 16:40:58;;;;;;;10.10;5.90;;;;;;;;;;10385509;28;20280;-72
2022/04/22 16:46:02;;;;;;;9.07;5.93;;;;;;;;;;10379528;28;20107;-73
2022/04/22 16:51:06;;;;;;;11.57;6.00;;;;;;;;;;10383992;28;20446;-73
2022/04/22 16:56:11;;;;;;;9.77;5.95;;;;;;;;;;10380666;28;20037;-72
2022/04/22 17:01:14;;;;;;;10.23;6.10;;;;;;;;;;10372315;28;20038;-73
2022/04/22 17:06:18;;;;;;;10.13;6.03;;;;;;;;;;10373995;28;20057;-73
2022/04/22 17:11:22;;;;;;;10.95;5.90;;;;;;;;;;10390474;28;20042;-73
2022/04/22 17:27:10;;;;;;;8.60;4.05;;;;;;;;;;10366289;28;20449;-73
2022/04/22 17:32:16;;;;;;;9.02;5.10;;;;;;;;;;10375138;28;20428;-71
2022/04/22 17:37:19;;;;;;;11.80;5.03;;;;;;;;;;10355129;28;20079;-72
2022/04/22 17:42:27;;;;;;;8.95;4.45;;;;;;;;;;10385345;28;20217;-73
2022/04/22 17:47:30;;;;;;;10.43;4.93;;;;;;;;;;10346048;28;20470;-73
2022/04/22 17:52:34;;;;;;;9.45;4.90;;;;;;;;;;10381256;28;20061;-73
2022/04/22 17:57:39;;;;;;;10.40;5.15;;;;;;;;;;10375719;28;20486;-72
2022/04/22 18:02:44;;;;;;;10.48;5.43;;;;;;;;;;10384251;28;20050;-71
2022/04/22 18:07:46;;;;;;;11.73;5.97;;;;;;;;;;10363351;28;20046;-72
2022/04/22 18:12:51;;;;;;;19.10;7.03;;;;;;;;;;10380697;28;20057;-73
2022/04/22 18:17:54;;;;;;;11.35;5.60;;;;;;;;;;10368442;28;20072;-72
2022/04/22 18:22:56;;;;;;;15.02;7.57;;;;;;;;;;10364828;28;20042;-72
2022/04/22 18:28:01;;;;;;;12.57;6.03;;;;;;;;;;10358266;28;20517;-72
2022/04/22 18:33:05;;;;;;;10.57;5.95;;;;;;;;;;10372777;28;20038;-73
2022/04/22 18:38:08;;;;;;;11.02;6.10;;;;;;;;;;10352259;28;20045;-73
2022/04/22 18:43:13;;;;;;;11.13;5.80;;;;;;;;;;10368545;28;20208;-73
2022/04/22 18:48:17;;;;;;;11.55;5.68;;;;;;;;;;10375391;28;20037;-72
2022/04/22 18:53:23;;;;;;;8.07;4.18;;;;;;;;;;10377589;28;20038;-71
2022/04/22 18:58:27;;;;;;;12.50;5.82;;;;;;;;;;10359275;28;20069;-72
2022/04/22 19:03:31;;;;;;;14.38;6.70;;;;;;;;;;10344139;28;20042;-73
2022/04/22 19:08:33;;;;;;;12.53;6.33;;;;;;;;;;10362351;28;20057;-71
2022/04/22 19:13:40;;;;;;;15.35;7.15;;;;;;;;;;10376078;28;20113;-71
2022/04/22 19:18:43;;;;;;;11.60;6.25;;;;;;;;;;10369747;28;20053;-72
2022/04/22 19:23:46;;;;;;;16.70;7.80;;;;;;;;;;10377389;28;20041;-72
2022/04/22 19:28:51;;;;;;;14.85;7.72;;;;;;;;;;10375024;28;20041;-73
2022/04/22 19:33:54;;;;;;;14.05;7.03;;;;;;;;;;10360747;28;20149;-71
2022/04/22 19:44:19;;;;;;;16.33;8.77;;;;;;;;;;10359217;28;20446;-71
2022/04/22 19:49:22;;;;;;;15.68;7.60;;;;;;;;;;10378967;28;20030;-71
2022/04/22 19:54:25;;;;;;;17.35;7.63;;;;;;;;;;10358689;28;20042;-68
2022/04/22 19:59:29;;;;;;;14.82;7.70;;;;;;;;;;10372241;28;20053;-72
2022/04/22 20:04:33;;;;;;;17.42;8.20;;;;;;;;;;10369931;28;20045;-72
2022/04/22 20:09:36;;;;;;;20.15;8.40;;;;;;;;;;10377940;28;20156;-72
2022/04/22 20:14:41;;;;;;;15.90;7.97;;;;;;;;;;10369495;28;20372;-70
2022/04/22 20:19:44;;;;;;;17.33;8.70;;;;;;;;;;10372235;28;20052;-72
2022/04/22 20:24:47;;;;;;;16.25;8.65;;;;;;;;;;10356521;28;20037;-75
2022/04/22 20:29:51;;;;;;;17.50;9.10;;;;;;;;;;10375679;28;20061;-74
2022/04/22 20:45:37;;;;;;;19.48;9.18;;;;;;;;;;10373261;28;20124;-74
2022/04/22 20:50:40;;;;;;;17.30;8.25;;;;;;;;;;10362883;28;20103;-74
2022/04/22 20:55:45;;;;;;;17.30;8.43;;;;;;;;;;10379417;28;20537;-76
2022/04/22 21:00:49;;;;;;;16.98;8.18;;;;;;;;;;10376116;28;20084;-76
2022/04/22 21:05:52;;;;;;;16.20;8.23;;;;;;;;;;10379258;28;20041;-74
2022/04/22 21:10:56;;;;;;;18.23;8.32;;;;;;;;;;10374134;28;20191;-71
2022/04/22 21:16:00;;;;;;;11.80;7.10;;;;;;;;;;10361191;28;20234;-71
2022/04/22 21:21:04;;;;;;;16.48;7.95;;;;;;;;;;10398359;22;20033;-71
2022/04/22 21:26:08;;;;;;;17.92;8.38;;;;;;;;;;10393436;28;20033;-72
2022/04/22 21:31:15;;;;;;;19.38;8.55;;;;;;;;;;10393349;28;20502;-71
2022/04/22 21:36:19;;;;;;;16.63;7.30;;;;;;;;;;10394876;28;20431;-71
2022/04/22 21:41:22;;;;;;;18.50;9.18;;;;;;;;;;10379357;28;20041;-71
2022/04/22 21:46:27;;;;;;;16.20;8.02;;;;;;;;;;10377057;28;20099;-70
2022/04/22 21:51:30;;;;;;;17.50;8.23;;;;;;;;;;10395644;28;20088;-72
2022/04/22 21:56:33;;;;;;;14.50;6.78;;;;;;;;;;10397295;28;20268;-71
2022/04/22 22:01:38;;;;;;;18.50;8.63;;;;;;;;;;10385400;28;20413;-70
2022/04/22 22:06:42;;;;;;;18.67;9.07;;;;;;;;;;10382808;28;20132;-71
2022/04/22 22:11:46;;;;;;;7.75;4.18;;;;;;;;;;10403728;28;20037;-70
2022/04/22 22:16:51;;;;;;;15.75;8.00;;;;;;;;;;10380482;28;20053;-71
2022/04/22 22:21:54;;;;;;;18.08;8.60;;;;;;;;;;10403306;28;20042;-70
2022/04/22 22:26:57;;;;;;;18.27;8.30;;;;;;;;;;10403783;28;20079;-70
2022/04/22 22:32:02;;;;;;;16.30;7.95;;;;;;;;;;10398752;28;20327;-70
2022/04/22 22:37:05;;;;;;;19.05;8.32;;;;;;;;;;10382727;28;20037;-69
2022/04/22 22:42:08;;;;;;;18.40;7.73;;;;;;;;;;10402857;28;20117;-71
2022/04/22 22:47:13;;;;;;;16.70;5.82;;;;;;;;;;10401167;28;20159;-71
2022/04/22 22:52:16;;;;;;;18.40;7.38;;;;;;;;;;10380986;28;20138;-72
2022/04/22 22:57:18;;;;;;;18.92;8.60;;;;;;;;;;10399425;28;20151;-73
2022/04/22 23:02:23;;;;;;;20.98;8.43;;;;;;;;;;10381762;28;20076;-73
2022/04/22 23:07:26;;;;;;;19.85;8.52;;;;;;;;;;10397872;28;20398;-71
2022/04/22 23:12:30;;;;;;;21.17;8.73;;;;;;;;;;10400110;28;20069;-70
2022/04/22 23:17:35;;;;;;;21.33;9.15;;;;;;;;;;10381963;28;20041;-71
2022/04/22 23:22:38;;;;;;;21.45;9.75;;;;;;;;;;10398087;28;20140;-69
2022/04/22 23:27:41;;;;;;;21.02;9.20;;;;;;;;;;10394672;28;20586;-70
2022/04/22 23:32:46;;;;;;;19.43;3.83;;;;;;;;;;10397748;28;20041;-71
2022/04/22 23:37:49;;;;;;;21.77;8.48;;;;;;;;;;10378476;28;20068;-71
2022/04/22 23:42:54;;;;;;;18.88;8.50;;;;;;;;;;10398516;28;20474;-71
2022/04/22 23:47:58;;;;;;;20.13;8.80;;;;;;;;;;10380087;28;20053;-72
2022/04/22 23:53:01;;;;;;;21.98;8.85;;;;;;;;;;10379820;28;20099;-71
2022/04/22 23:58:06;;;;;;;24.52;9.77;;;;;;;;;;10397509;28;20048;-71
